John Glenn Columbus International (CMH)

 

Airport Diagram
Current Weather/Forecast (VFR Conditions)
METAR KCMH 290451Z 18005KT 10SM BKN100 OVC120 23/17 A2993 RMK AO2 SLP129 T02330172 402830061
TAF KCMH 282320Z 2900/2924 20006KT P6SM VCSH SCT040 BKN100 FM290700 19005KT P6SM SCT060 FM291300 22012KT P6SM BKN060 FM291600 22014G22KT P6SM VCSH BKN035 FM291800 23012G20KT P6SM VCTS BKN040CB FM292300 31012KT P6SM VCSH BKN060

Airport Information

All Charts
General
Chart Name View
AIRPORT DIAGRAM
TAKEOFF MINIMUMS
ALTERNATE MINIMUMS
HOT SPOT

Arrivals
Chart Name Download
BREMN FIVE
BREMN FIVE, CONT.1
GAILL THREE (RNAV)
GUNNE FOUR
GUNNE FOUR, CONT.1

Approaches
Chart Name Download
ILS OR LOC RWY 10L
ILS OR LOC RWY 10R
ILS OR LOC RWY 28L
ILS OR LOC RWY 28R
ILS RWY 10R (SA CAT I - II)
ILS RWY 28L (SA CAT I - II)
RNAV (RNP) Z RWY 10L
RNAV (RNP) Z RWY 10R
RNAV (RNP) Z RWY 28L
RNAV (RNP) Z RWY 28R
RNAV (GPS) Y RWY 10L
RNAV (GPS) Y RWY 10R
RNAV (GPS) Y RWY 28L
RNAV (GPS) Y RWY 28R


Airport Statistics
Departures Arrivals Local
All Collected Stats since June 2016: 1255 971 37
2020 Stats: 312 270 10
May Stats: 65 71 1

Inbound Traffic (Arrivals) - 0

No inbound traffic.


Outbound Traffic (Departures) - 0

No outbound traffic.


Local Traffic (Pattern) - 0

No local traffic.